createdAt,value
2018-09-03T00:03:57.679Z,13.30
2018-09-03T00:13:59.042Z,14.30
2018-09-03T00:24:00.320Z,16.50
2018-09-03T00:34:02.378Z,18.30
2018-09-03T00:44:03.636Z,13.03
2018-09-03T00:54:04.912Z,18.33
2018-09-03T01:04:07.090Z,16.37
2018-09-03T01:14:08.323Z,18.07
2018-09-03T01:24:10.338Z,19.47
2018-09-03T01:34:11.583Z,19.37
2018-09-03T01:44:12.830Z,14.93
2018-09-03T01:54:14.084Z,16.93
2018-09-03T02:04:15.486Z,16.67
2018-09-03T02:14:16.784Z,19.40
2018-09-03T02:24:18.044Z,15.80
2018-09-03T02:34:19.300Z,16.40
2018-09-03T02:44:21.358Z,16.77
2018-09-03T02:54:22.633Z,20.13
2018-09-03T03:04:23.879Z,20.23
2018-09-03T03:14:25.125Z,17.33
2018-09-03T03:24:26.410Z,14.83
2018-09-03T03:34:27.665Z,19.17
2018-09-03T03:44:28.918Z,18.47
2018-09-03T03:54:30.182Z,22.17
2018-09-03T04:04:32.391Z,17.17
2018-09-03T04:14:34.441Z,18.23
2018-09-03T04:24:35.863Z,19.77
2018-09-03T04:34:37.127Z,20.47
2018-09-03T04:44:38.442Z,20.17
2018-09-03T04:54:39.709Z,20.77
2018-09-03T05:04:40.982Z,22.60
2018-09-03T05:14:42.253Z,19.50
2018-09-03T05:24:43.496Z,18.90
2018-09-03T05:34:44.750Z,19.30
2018-09-03T05:44:46.019Z,15.77
2018-09-03T05:54:47.298Z,12.83
2018-09-03T06:04:48.657Z,13.47
2018-09-03T06:14:50.690Z,13.30
2018-09-03T06:24:52.124Z,14.40
2018-09-03T06:34:54.171Z,14.57
2018-09-03T06:44:55.706Z,13.50
2018-09-03T06:54:57.124Z,13.20
2018-09-03T07:04:58.449Z,12.70
2018-09-03T07:14:59.698Z,13.47
2018-09-03T07:25:01.734Z,11.63
2018-09-03T07:35:02.974Z,13.83
2018-09-03T07:45:05.485Z,13.53
2018-09-03T07:55:06.780Z,10.57
2018-09-03T08:05:08.183Z,8.83
2018-09-03T08:15:09.451Z,9.57
2018-09-03T08:25:10.888Z,8.40
2018-09-03T08:35:15.363Z,9.63
2018-09-03T08:45:16.602Z,7.77
2018-09-03T08:55:18.039Z,8.37
2018-09-03T09:05:19.278Z,8.48
2018-09-03T09:15:22.411Z,8.25
2018-09-03T09:25:23.667Z,7.12
2018-09-03T09:45:31.609Z,6.37
2018-09-03T09:55:32.885Z,6.30
2018-09-03T10:05:34.156Z,5.32
2018-09-03T10:15:35.444Z,6.37
2018-09-03T10:25:36.726Z,6.25
2018-09-03T10:35:37.967Z,6.53
2018-09-03T10:45:39.218Z,5.33
2018-09-03T10:55:40.452Z,7.27
2018-09-03T11:05:41.691Z,6.73
2018-09-03T11:15:42.982Z,7.07
2018-09-03T11:25:44.285Z,6.60
2018-09-03T11:35:48.420Z,6.70
2018-09-03T11:45:49.714Z,6.05
2018-09-03T11:55:51.121Z,6.72
2018-09-03T12:05:52.411Z,6.53
2018-09-03T12:15:53.670Z,6.07
2018-09-03T12:25:54.926Z,6.10
2018-09-03T12:35:56.925Z,5.45
2018-09-03T12:45:58.158Z,7.62
2018-09-03T12:56:00.532Z,7.17
2018-09-03T13:06:01.802Z,7.50
2018-09-03T13:16:03.101Z,7.50
2018-09-03T13:26:04.383Z,7.53
2018-09-03T13:36:06.605Z,7.00
2018-09-03T13:56:15.652Z,8.33
2018-09-03T14:06:17.101Z,8.80
2018-09-03T14:16:19.309Z,9.33
2018-09-03T14:26:20.732Z,10.23
2018-09-03T14:36:22.732Z,9.20
2018-09-03T14:46:24.808Z,8.23
2018-09-03T14:56:26.072Z,8.50
2018-09-03T15:06:27.326Z,9.33
2018-09-03T15:16:28.598Z,7.37
2018-09-03T15:26:29.945Z,7.80
2018-09-03T15:36:32.168Z,10.80
2018-09-03T15:46:33.646Z,9.30
2018-09-03T15:56:35.895Z,10.07
2018-09-03T16:06:37.159Z,10.50
2018-09-03T16:16:39.214Z,11.07
2018-09-03T16:26:40.483Z,12.07
2018-09-03T16:36:41.770Z,10.10
2018-09-03T16:46:47.880Z,10.93
2018-09-03T16:56:49.145Z,12.00
2018-09-03T17:06:51.191Z,9.97
2018-09-03T17:16:52.450Z,10.97
2018-09-03T17:26:54.537Z,10.80
2018-09-03T17:36:55.955Z,12.30
2018-09-03T17:46:57.250Z,11.83
2018-09-03T17:56:58.529Z,15.47
2018-09-03T18:06:59.800Z,13.10
2018-09-03T18:17:01.098Z,16.00
2018-09-03T18:27:02.389Z,13.77
2018-09-03T18:37:03.653Z,12.87
2018-09-03T18:47:05.146Z,12.77
2018-09-03T18:57:06.423Z,15.87
2018-09-03T19:07:07.663Z,15.63
2018-09-03T19:17:08.918Z,14.50
2018-09-03T19:27:10.948Z,13.67
2018-09-03T19:37:12.443Z,14.90
2018-09-03T19:47:14.474Z,14.97
2018-09-03T19:57:15.760Z,16.20
2018-09-03T20:07:17.052Z,17.73
2018-09-03T20:17:18.436Z,16.70
2018-09-03T20:27:19.740Z,17.50
2018-09-03T20:37:20.991Z,16.97
2018-09-03T20:47:22.306Z,16.90
2018-09-03T20:57:23.565Z,13.87
2018-09-03T21:07:24.806Z,15.30
2018-09-03T21:17:26.073Z,17.00
2018-09-03T21:27:27.612Z,14.67
2018-09-03T21:37:29.084Z,14.97
2018-09-03T21:47:31.168Z,16.13
2018-09-03T21:57:33.361Z,15.00
2018-09-03T22:07:34.643Z,13.13
2018-09-03T22:17:36.108Z,12.70
2018-09-03T22:27:37.386Z,14.63
2018-09-03T22:37:38.633Z,16.33
2018-09-03T22:47:39.873Z,16.50
2018-09-03T22:57:41.914Z,15.77
2018-09-03T23:07:43.189Z,15.97
2018-09-03T23:17:44.624Z,13.47
2018-09-03T23:27:46.061Z,13.37
2018-09-03T23:37:48.103Z,12.73
2018-09-03T23:47:49.395Z,14.60
2018-09-03T23:57:50.666Z,15.77
